Bretton Woods, NH (03575)

3:06 AM EST on February 11, 2016 (GMT -0500)
Presidential Views | | Change Station
CLOSE
Current Station
Personal Weather Station
Location: Carroll, NH
Elevation: 1788 ft
Nearby Weather Stations

Elev 1788 ft 44.26 °N, 71.47 °W | Updated 6 seconds ago

Partly Cloudy
Partly Cloudy
15.4 °F
Feels Like 15 °F
N
0.9
Wind Variable Wind from WSW
Gusts 2.5 mph

Today
High -- | Low -- °F
--% Chance of Precip.
Yesterday
High -- | Low -- °F
Precip. -- in
Pressure 29.60 in
Visibility 10.0 miles
Clouds Mostly Cloudy 2400 ft
Overcast 6000 ft
Windchill 15 °F
Dew Point 7 °F
Humidity 70%
Rainfall 0.00 in
Snow Depth Not available.
6:51 AM 5:08 PM
Waxing Crescent, 10% visible
SPECI KHIE 110803Z AUTO 00000KT 10SM BKN024 OVC060 M09/M12 A2960 RMK AO2 T10891117
Pressure 29.60 in
Visibility 10.0 miles
Clouds Mostly Cloudy 2400 ft
Overcast 6000 ft
Windchill 15 °F
Dew Point 7 °F
Humidity 70%
Rainfall 0.00 in
Snow Depth Not available.
6:51 AM 5:08 PM
Waxing Crescent, 10% visible
SPECI KHIE 110803Z AUTO 00000KT 10SM BKN024 OVC060 M09/M12 A2960 RMK AO2 T10891117

10-Day Weather Forecast

Almanac

Astronomy

Feb. 11, 2016 Rise Set
Actual Time
Civil Twilight
Nautical Twilight
Astronomical Twilight
Moon
Length of Visible Light
Length of Day
Tomorrow will be .
, % of the Moon is Illuminated

Today's Extremes

State Highs State Lows

Community

WunderPhotos

Upload Photos

1,892,030 photos uploaded!

WunderBlog® & News

Nearby

Air Quality

  Air Quality AQ Index Pollutant
Not available.

Snow Depth

Station Depth Elevation

Earthquake Activity

City Distance Mag. Time & Date
Minimum magnitude displayed is 2.5.

Coastal Water Temperatures

Place Temperature

Stations

Nearby Weather Stations

Station Location Temp. Windchill Dew Point Humidity Wind Precip. Elev Updated Type
                   

Watches & Warnings

There are currently no watches in effect.